sensor_id;sensor_type;location;lat;lon;timestamp;temperature;humidity
17370;DHT22;8802;52.402;4.920;2022-08-19T00:00:09;22.90;94.00
17370;DHT22;8802;52.402;4.920;2022-08-19T00:02:39;22.90;94.10
17370;DHT22;8802;52.402;4.920;2022-08-19T00:05:07;22.90;94.10
17370;DHT22;8802;52.402;4.920;2022-08-19T00:07:34;22.90;94.10
17370;DHT22;8802;52.402;4.920;2022-08-19T00:10:01;22.90;94.20
17370;DHT22;8802;52.402;4.920;2022-08-19T00:12:29;22.80;94.20
17370;DHT22;8802;52.402;4.920;2022-08-19T00:14:56;22.80;94.20
17370;DHT22;8802;52.402;4.920;2022-08-19T00:17:22;22.80;94.30
17370;DHT22;8802;52.402;4.920;2022-08-19T00:19:49;22.80;94.30
17370;DHT22;8802;52.402;4.920;2022-08-19T00:22:16;22.80;94.40
17370;DHT22;8802;52.402;4.920;2022-08-19T00:24:43;22.70;94.40
17370;DHT22;8802;52.402;4.920;2022-08-19T00:27:11;22.70;94.40
17370;DHT22;8802;52.402;4.920;2022-08-19T00:29:39;22.70;94.40
17370;DHT22;8802;52.402;4.920;2022-08-19T00:32:06;22.70;94.40
17370;DHT22;8802;52.402;4.920;2022-08-19T00:34:33;22.70;94.40
17370;DHT22;8802;52.402;4.920;2022-08-19T00:37:00;22.70;94.50
17370;DHT22;8802;52.402;4.920;2022-08-19T00:39:27;22.70;94.50
17370;DHT22;8802;52.402;4.920;2022-08-19T00:41:55;22.70;94.50
17370;DHT22;8802;52.402;4.920;2022-08-19T00:44:25;22.70;94.50
17370;DHT22;8802;52.402;4.920;2022-08-19T00:46:56;22.70;94.60
17370;DHT22;8802;52.402;4.920;2022-08-19T00:49:27;22.70;94.60
17370;DHT22;8802;52.402;4.920;2022-08-19T00:51:57;22.60;94.50
17370;DHT22;8802;52.402;4.920;2022-08-19T00:54:26;22.60;94.60
17370;DHT22;8802;52.402;4.920;2022-08-19T00:56:53;22.60;94.70
17370;DHT22;8802;52.402;4.920;2022-08-19T00:59:20;22.60;94.70
17370;DHT22;8802;52.402;4.920;2022-08-19T01:01:48;22.60;94.70
17370;DHT22;8802;52.402;4.920;2022-08-19T01:04:16;22.60;94.60
17370;DHT22;8802;52.402;4.920;2022-08-19T01:06:43;22.70;94.70
17370;DHT22;8802;52.402;4.920;2022-08-19T01:09:10;22.60;94.60
17370;DHT22;8802;52.402;4.920;2022-08-19T01:11:40;22.60;94.60
17370;DHT22;8802;52.402;4.920;2022-08-19T01:14:09;22.60;94.60
17370;DHT22;8802;52.402;4.920;2022-08-19T01:16:37;22.60;94.70
17370;DHT22;8802;52.402;4.920;2022-08-19T01:19:10;22.60;94.60
17370;DHT22;8802;52.402;4.920;2022-08-19T01:21:45;22.60;94.70
17370;DHT22;8802;52.402;4.920;2022-08-19T01:24:15;22.60;94.60
17370;DHT22;8802;52.402;4.920;2022-08-19T01:26:43;22.60;94.60
17370;DHT22;8802;52.402;4.920;2022-08-19T01:29:11;22.60;94.60
17370;DHT22;8802;52.402;4.920;2022-08-19T01:31:38;22.60;94.60
17370;DHT22;8802;52.402;4.920;2022-08-19T01:34:06;22.60;94.60
17370;DHT22;8802;52.402;4.920;2022-08-19T01:36:36;22.60;94.70
17370;DHT22;8802;52.402;4.920;2022-08-19T01:39:07;22.60;94.70
17370;DHT22;8802;52.402;4.920;2022-08-19T01:41:36;22.60;94.60
17370;DHT22;8802;52.402;4.920;2022-08-19T01:44:05;22.60;94.60
17370;DHT22;8802;52.402;4.920;2022-08-19T01:46:32;22.60;94.70
17370;DHT22;8802;52.402;4.920;2022-08-19T01:48:59;22.60;94.80
17370;DHT22;8802;52.402;4.920;2022-08-19T01:51:26;22.60;94.70
17370;DHT22;8802;52.402;4.920;2022-08-19T01:53:53;22.60;94.70
17370;DHT22;8802;52.402;4.920;2022-08-19T01:56:20;22.60;94.70
17370;DHT22;8802;52.402;4.920;2022-08-19T01:58:51;22.60;94.70
17370;DHT22;8802;52.402;4.920;2022-08-19T02:01:19;22.50;94.60
17370;DHT22;8802;52.402;4.920;2022-08-19T02:03:46;22.50;94.70
17370;DHT22;8802;52.402;4.920;2022-08-19T02:06:13;22.50;94.70
17370;DHT22;8802;52.402;4.920;2022-08-19T02:08:42;22.50;94.60
17370;DHT22;8802;52.402;4.920;2022-08-19T02:11:19;22.50;94.60
17370;DHT22;8802;52.402;4.920;2022-08-19T02:13:46;22.50;94.60
17370;DHT22;8802;52.402;4.920;2022-08-19T02:16:14;22.50;94.60
17370;DHT22;8802;52.402;4.920;2022-08-19T02:18:41;22.50;94.60
17370;DHT22;8802;52.402;4.920;2022-08-19T02:21:08;22.50;94.60
17370;DHT22;8802;52.402;4.920;2022-08-19T02:23:34;22.50;94.60
17370;DHT22;8802;52.402;4.920;2022-08-19T02:26:01;22.50;94.70
17370;DHT22;8802;52.402;4.920;2022-08-19T02:28:28;22.50;94.60
17370;DHT22;8802;52.402;4.920;2022-08-19T02:30:55;22.40;94.60
17370;DHT22;8802;52.402;4.920;2022-08-19T02:33:23;22.50;94.70
17370;DHT22;8802;52.402;4.920;2022-08-19T02:35:50;22.40;94.60
17370;DHT22;8802;52.402;4.920;2022-08-19T02:38:17;22.50;94.70
17370;DHT22;8802;52.402;4.920;2022-08-19T02:40:55;22.40;94.70
17370;DHT22;8802;52.402;4.920;2022-08-19T02:43:23;22.40;94.60
17370;DHT22;8802;52.402;4.920;2022-08-19T02:45:51;22.40;94.60
17370;DHT22;8802;52.402;4.920;2022-08-19T02:48:19;22.40;94.60
17370;DHT22;8802;52.402;4.920;2022-08-19T02:50:49;22.40;94.50
17370;DHT22;8802;52.402;4.920;2022-08-19T02:53:21;22.40;94.60
17370;DHT22;8802;52.402;4.920;2022-08-19T02:55:49;22.40;94.60
17370;DHT22;8802;52.402;4.920;2022-08-19T02:58:16;22.40;94.60
17370;DHT22;8802;52.402;4.920;2022-08-19T03:00:45;22.40;94.90
17370;DHT22;8802;52.402;4.920;2022-08-19T03:03:14;22.40;94.50
17370;DHT22;8802;52.402;4.920;2022-08-19T03:05:41;22.40;94.50
17370;DHT22;8802;52.402;4.920;2022-08-19T03:08:11;22.30;94.50
17370;DHT22;8802;52.402;4.920;2022-08-19T03:10:42;22.30;94.40
17370;DHT22;8802;52.402;4.920;2022-08-19T03:13:11;22.30;94.40
17370;DHT22;8802;52.402;4.920;2022-08-19T03:15:40;22.30;94.40
17370;DHT22;8802;52.402;4.920;2022-08-19T03:18:07;22.30;94.50
17370;DHT22;8802;52.402;4.920;2022-08-19T03:20:34;22.30;94.50
17370;DHT22;8802;52.402;4.920;2022-08-19T03:23:06;22.30;94.90
17370;DHT22;8802;52.402;4.920;2022-08-19T03:25:38;22.30;94.50
17370;DHT22;8802;52.402;4.920;2022-08-19T03:28:06;22.30;94.40
17370;DHT22;8802;52.402;4.920;2022-08-19T03:30:33;22.30;94.50
17370;DHT22;8802;52.402;4.920;2022-08-19T03:33:00;22.30;94.40
17370;DHT22;8802;52.402;4.920;2022-08-19T03:35:27;22.30;94.40
17370;DHT22;8802;52.402;4.920;2022-08-19T03:37:54;22.30;94.40
17370;DHT22;8802;52.402;4.920;2022-08-19T03:40:22;22.30;94.40
17370;DHT22;8802;52.402;4.920;2022-08-19T03:42:50;22.30;94.40
17370;DHT22;8802;52.402;4.920;2022-08-19T03:45:17;22.30;94.40
17370;DHT22;8802;52.402;4.920;2022-08-19T03:47:44;22.30;94.50
17370;DHT22;8802;52.402;4.920;2022-08-19T03:50:11;22.20;94.40
17370;DHT22;8802;52.402;4.920;2022-08-19T03:52:38;22.20;94.40
17370;DHT22;8802;52.402;4.920;2022-08-19T03:55:06;22.20;94.40
17370;DHT22;8802;52.402;4.920;2022-08-19T03:57:33;22.20;94.50
17370;DHT22;8802;52.402;4.920;2022-08-19T04:00:03;22.20;94.50
17370;DHT22;8802;52.402;4.920;2022-08-19T04:02:32;22.20;94.60
17370;DHT22;8802;52.402;4.920;2022-08-19T04:04:59;22.20;94.70
17370;DHT22;8802;52.402;4.920;2022-08-19T04:07:25;22.20;94.70
17370;DHT22;8802;52.402;4.920;2022-08-19T04:09:52;22.20;94.70
17370;DHT22;8802;52.402;4.920;2022-08-19T04:12:19;22.20;94.70
17370;DHT22;8802;52.402;4.920;2022-08-19T04:14:46;22.20;94.70
17370;DHT22;8802;52.402;4.920;2022-08-19T04:17:15;22.20;94.70
17370;DHT22;8802;52.402;4.920;2022-08-19T04:19:41;22.10;94.60
17370;DHT22;8802;52.402;4.920;2022-08-19T04:22:09;22.10;94.70
17370;DHT22;8802;52.402;4.920;2022-08-19T04:24:37;22.10;94.70
17370;DHT22;8802;52.402;4.920;2022-08-19T04:27:05;22.10;94.80
17370;DHT22;8802;52.402;4.920;2022-08-19T04:29:32;22.10;94.80
17370;DHT22;8802;52.402;4.920;2022-08-19T04:32:00;22.10;94.80
17370;DHT22;8802;52.402;4.920;2022-08-19T04:34:29;22.10;94.80
17370;DHT22;8802;52.402;4.920;2022-08-19T04:36:57;22.10;94.80
17370;DHT22;8802;52.402;4.920;2022-08-19T04:39:27;22.10;94.80
17370;DHT22;8802;52.402;4.920;2022-08-19T04:42:08;22.10;95.20
17370;DHT22;8802;52.402;4.920;2022-08-19T04:44:52;22.10;94.80
17370;DHT22;8802;52.402;4.920;2022-08-19T04:47:19;22.10;95.30
17370;DHT22;8802;52.402;4.920;2022-08-19T04:49:47;22.10;94.90
17370;DHT22;8802;52.402;4.920;2022-08-19T04:52:14;22.10;94.90
17370;DHT22;8802;52.402;4.920;2022-08-19T04:54:41;22.10;94.90
17370;DHT22;8802;52.402;4.920;2022-08-19T04:57:09;22.10;95.00
17370;DHT22;8802;52.402;4.920;2022-08-19T04:59:36;22.10;95.10
17370;DHT22;8802;52.402;4.920;2022-08-19T05:02:04;22.00;95.10
17370;DHT22;8802;52.402;4.920;2022-08-19T05:04:32;22.10;95.20
17370;DHT22;8802;52.402;4.920;2022-08-19T05:07:01;22.10;95.20
17370;DHT22;8802;52.402;4.920;2022-08-19T05:09:28;22.10;95.30
17370;DHT22;8802;52.402;4.920;2022-08-19T05:11:55;22.10;95.70
17370;DHT22;8802;52.402;4.920;2022-08-19T05:14:22;22.10;95.30
17370;DHT22;8802;52.402;4.920;2022-08-19T05:16:49;22.10;95.30
17370;DHT22;8802;52.402;4.920;2022-08-19T05:19:15;22.10;95.40
17370;DHT22;8802;52.402;4.920;2022-08-19T05:22:01;22.10;95.40
17370;DHT22;8802;52.402;4.920;2022-08-19T05:24:45;22.10;95.40
17370;DHT22;8802;52.402;4.920;2022-08-19T05:27:12;22.10;95.40
17370;DHT22;8802;52.402;4.920;2022-08-19T05:29:39;22.10;95.50
17370;DHT22;8802;52.402;4.920;2022-08-19T05:32:06;22.10;95.50
17370;DHT22;8802;52.402;4.920;2022-08-19T05:34:35;22.10;95.50
17370;DHT22;8802;52.402;4.920;2022-08-19T05:37:05;22.10;95.50
17370;DHT22;8802;52.402;4.920;2022-08-19T05:39:35;22.10;95.60
17370;DHT22;8802;52.402;4.920;2022-08-19T05:42:04;22.10;95.60
17370;DHT22;8802;52.402;4.920;2022-08-19T05:44:34;22.20;95.60
17370;DHT22;8802;52.402;4.920;2022-08-19T05:47:04;22.20;95.60
17370;DHT22;8802;52.402;4.920;2022-08-19T05:49:32;22.20;95.70
17370;DHT22;8802;52.402;4.920;2022-08-19T05:52:02;22.20;95.70
17370;DHT22;8802;52.402;4.920;2022-08-19T05:54:30;22.20;95.60
17370;DHT22;8802;52.402;4.920;2022-08-19T05:56:57;22.20;95.70
17370;DHT22;8802;52.402;4.920;2022-08-19T05:59:24;22.20;95.70
17370;DHT22;8802;52.402;4.920;2022-08-19T06:01:52;22.20;95.70
17370;DHT22;8802;52.402;4.920;2022-08-19T06:04:20;22.30;95.80
17370;DHT22;8802;52.402;4.920;2022-08-19T06:06:49;22.30;95.80
17370;DHT22;8802;52.402;4.920;2022-08-19T06:09:18;22.30;95.80
17370;DHT22;8802;52.402;4.920;2022-08-19T06:11:48;22.30;95.90
17370;DHT22;8802;52.402;4.920;2022-08-19T06:14:17;22.40;95.90
17370;DHT22;8802;52.402;4.920;2022-08-19T06:16:46;22.40;96.30
17370;DHT22;8802;52.402;4.920;2022-08-19T06:19:15;22.40;95.90
17370;DHT22;8802;52.402;4.920;2022-08-19T06:21:44;22.40;95.80
17370;DHT22;8802;52.402;4.920;2022-08-19T06:24:14;22.40;95.80
17370;DHT22;8802;52.402;4.920;2022-08-19T06:26:50;22.50;95.90
17370;DHT22;8802;52.402;4.920;2022-08-19T06:29:19;22.50;96.00
17370;DHT22;8802;52.402;4.920;2022-08-19T06:31:51;22.50;96.00
17370;DHT22;8802;52.402;4.920;2022-08-19T06:34:19;22.50;95.90
17370;DHT22;8802;52.402;4.920;2022-08-19T06:36:47;22.60;96.00
17370;DHT22;8802;52.402;4.920;2022-08-19T06:39:16;22.60;95.90
17370;DHT22;8802;52.402;4.920;2022-08-19T06:41:45;22.60;96.00
17370;DHT22;8802;52.402;4.920;2022-08-19T06:44:14;22.60;96.00
17370;DHT22;8802;52.402;4.920;2022-08-19T06:46:41;22.70;96.00
17370;DHT22;8802;52.402;4.920;2022-08-19T06:49:09;22.70;96.00
17370;DHT22;8802;52.402;4.920;2022-08-19T06:51:39;22.70;96.00
17370;DHT22;8802;52.402;4.920;2022-08-19T06:54:06;22.70;96.00
17370;DHT22;8802;52.402;4.920;2022-08-19T06:56:33;22.80;96.10
17370;DHT22;8802;52.402;4.920;2022-08-19T06:59:02;22.80;96.10
17370;DHT22;8802;52.402;4.920;2022-08-19T07:01:34;22.80;96.00
17370;DHT22;8802;52.402;4.920;2022-08-19T07:04:04;22.90;96.00
17370;DHT22;8802;52.402;4.920;2022-08-19T07:06:31;22.80;96.40
17370;DHT22;8802;52.402;4.920;2022-08-19T07:08:58;22.90;96.10
17370;DHT22;8802;52.402;4.920;2022-08-19T07:11:25;22.90;96.10
17370;DHT22;8802;52.402;4.920;2022-08-19T07:13:52;23.00;96.20
17370;DHT22;8802;52.402;4.920;2022-08-19T07:16:20;23.00;96.20
17370;DHT22;8802;52.402;4.920;2022-08-19T07:18:49;23.10;96.20
17370;DHT22;8802;52.402;4.920;2022-08-19T07:21:19;23.10;96.20
17370;DHT22;8802;52.402;4.920;2022-08-19T07:23:48;23.10;96.10
17370;DHT22;8802;52.402;4.920;2022-08-19T07:26:17;23.20;96.10
17370;DHT22;8802;52.402;4.920;2022-08-19T07:28:44;23.20;96.20
17370;DHT22;8802;52.402;4.920;2022-08-19T07:31:13;23.30;96.10
17370;DHT22;8802;52.402;4.920;2022-08-19T07:33:40;23.30;96.10
17370;DHT22;8802;52.402;4.920;2022-08-19T07:36:11;23.40;96.20
17370;DHT22;8802;52.402;4.920;2022-08-19T07:38:40;23.40;96.40
17370;DHT22;8802;52.402;4.920;2022-08-19T07:41:08;23.50;96.00
17370;DHT22;8802;52.402;4.920;2022-08-19T07:43:36;23.60;96.00
17370;DHT22;8802;52.402;4.920;2022-08-19T07:46:03;23.60;95.90
17370;DHT22;8802;52.402;4.920;2022-08-19T07:48:30;23.70;95.90
17370;DHT22;8802;52.402;4.920;2022-08-19T07:51:00;23.80;95.80
17370;DHT22;8802;52.402;4.920;2022-08-19T07:53:31;23.80;95.60
17370;DHT22;8802;52.402;4.920;2022-08-19T07:55:59;23.90;95.70
17370;DHT22;8802;52.402;4.920;2022-08-19T07:58:30;24.00;95.70
17370;DHT22;8802;52.402;4.920;2022-08-19T08:00:58;24.10;95.50
17370;DHT22;8802;52.402;4.920;2022-08-19T08:03:25;24.10;95.30
17370;DHT22;8802;52.402;4.920;2022-08-19T08:06:06;24.10;95.30
17370;DHT22;8802;52.402;4.920;2022-08-19T08:08:52;24.20;95.20
17370;DHT22;8802;52.402;4.920;2022-08-19T08:11:37;24.30;95.20
17370;DHT22;8802;52.402;4.920;2022-08-19T08:14:05;24.30;95.10
17370;DHT22;8802;52.402;4.920;2022-08-19T08:16:34;24.40;95.10
17370;DHT22;8802;52.402;4.920;2022-08-19T08:19:01;24.40;95.00
17370;DHT22;8802;52.402;4.920;2022-08-19T08:21:30;24.50;95.00
17370;DHT22;8802;52.402;4.920;2022-08-19T08:23:59;24.60;94.90
17370;DHT22;8802;52.402;4.920;2022-08-19T08:26:26;24.60;94.80
17370;DHT22;8802;52.402;4.920;2022-08-19T08:28:53;24.70;94.60
17370;DHT22;8802;52.402;4.920;2022-08-19T08:31:20;24.80;94.60
17370;DHT22;8802;52.402;4.920;2022-08-19T08:33:47;24.80;94.40
17370;DHT22;8802;52.402;4.920;2022-08-19T08:36:14;24.90;94.10
17370;DHT22;8802;52.402;4.920;2022-08-19T08:38:42;25.00;94.10
17370;DHT22;8802;52.402;4.920;2022-08-19T08:41:17;25.00;94.10
17370;DHT22;8802;52.402;4.920;2022-08-19T08:43:48;25.00;93.90
17370;DHT22;8802;52.402;4.920;2022-08-19T08:46:21;25.10;94.00
17370;DHT22;8802;52.402;4.920;2022-08-19T08:48:56;25.10;94.10
17370;DHT22;8802;52.402;4.920;2022-08-19T08:51:28;25.20;93.80
17370;DHT22;8802;52.402;4.920;2022-08-19T08:53:56;25.20;93.80
17370;DHT22;8802;52.402;4.920;2022-08-19T08:56:24;25.30;93.60
17370;DHT22;8802;52.402;4.920;2022-08-19T08:58:56;25.30;93.50
17370;DHT22;8802;52.402;4.920;2022-08-19T09:01:23;25.40;93.50
17370;DHT22;8802;52.402;4.920;2022-08-19T09:03:50;25.40;93.30
17370;DHT22;8802;52.402;4.920;2022-08-19T09:06:23;25.50;93.30
17370;DHT22;8802;52.402;4.920;2022-08-19T09:08:58;25.50;92.90
17370;DHT22;8802;52.402;4.920;2022-08-19T09:11:38;25.60;92.80
17370;DHT22;8802;52.402;4.920;2022-08-19T09:14:20;25.60;92.80
17370;DHT22;8802;52.402;4.920;2022-08-19T09:16:49;25.60;92.20
17370;DHT22;8802;52.402;4.920;2022-08-19T09:19:17;25.70;92.30
17370;DHT22;8802;52.402;4.920;2022-08-19T09:21:44;25.70;92.50
17370;DHT22;8802;52.402;4.920;2022-08-19T09:24:11;25.70;92.40
17370;DHT22;8802;52.402;4.920;2022-08-19T09:26:40;25.80;92.10
17370;DHT22;8802;52.402;4.920;2022-08-19T09:29:09;25.80;92.00
17370;DHT22;8802;52.402;4.920;2022-08-19T09:31:36;25.90;92.00
17370;DHT22;8802;52.402;4.920;2022-08-19T09:34:03;26.00;91.70
17370;DHT22;8802;52.402;4.920;2022-08-19T09:36:31;26.00;91.70
17370;DHT22;8802;52.402;4.920;2022-08-19T09:38:59;26.00;92.00
17370;DHT22;8802;52.402;4.920;2022-08-19T09:41:27;26.10;91.90
17370;DHT22;8802;52.402;4.920;2022-08-19T09:43:57;26.10;91.30
17370;DHT22;8802;52.402;4.920;2022-08-19T09:46:26;26.20;91.40
17370;DHT22;8802;52.402;4.920;2022-08-19T09:48:54;26.20;91.30
17370;DHT22;8802;52.402;4.920;2022-08-19T09:51:25;26.30;91.30
17370;DHT22;8802;52.402;4.920;2022-08-19T09:53:58;26.30;91.60
17370;DHT22;8802;52.402;4.920;2022-08-19T09:56:25;26.30;91.20
17370;DHT22;8802;52.402;4.920;2022-08-19T09:58:52;26.40;91.00
17370;DHT22;8802;52.402;4.920;2022-08-19T10:01:22;26.40;90.60
17370;DHT22;8802;52.402;4.920;2022-08-19T10:03:51;26.40;90.80
17370;DHT22;8802;52.402;4.920;2022-08-19T10:06:19;26.40;90.70
17370;DHT22;8802;52.402;4.920;2022-08-19T10:08:46;26.40;90.50
17370;DHT22;8802;52.402;4.920;2022-08-19T10:11:14;26.40;90.30
17370;DHT22;8802;52.402;4.920;2022-08-19T10:13:43;26.40;90.70
17370;DHT22;8802;52.402;4.920;2022-08-19T10:16:13;26.40;90.40
17370;DHT22;8802;52.402;4.920;2022-08-19T10:18:42;26.40;90.40
17370;DHT22;8802;52.402;4.920;2022-08-19T10:21:11;26.40;90.40
17370;DHT22;8802;52.402;4.920;2022-08-19T10:23:41;26.40;90.20
17370;DHT22;8802;52.402;4.920;2022-08-19T10:26:09;26.40;90.30
17370;DHT22;8802;52.402;4.920;2022-08-19T10:28:36;26.50;90.60
17370;DHT22;8802;52.402;4.920;2022-08-19T10:31:05;26.50;90.70
17370;DHT22;8802;52.402;4.920;2022-08-19T10:33:32;26.50;90.50
17370;DHT22;8802;52.402;4.920;2022-08-19T10:36:02;26.50;90.50
17370;DHT22;8802;52.402;4.920;2022-08-19T10:38:29;26.60;90.60
17370;DHT22;8802;52.402;4.920;2022-08-19T10:40:56;26.60;90.40
17370;DHT22;8802;52.402;4.920;2022-08-19T10:43:23;26.60;90.50
17370;DHT22;8802;52.402;4.920;2022-08-19T10:45:54;26.70;90.20
17370;DHT22;8802;52.402;4.920;2022-08-19T10:48:24;26.70;90.30
17370;DHT22;8802;52.402;4.920;2022-08-19T10:50:51;26.70;90.30
17370;DHT22;8802;52.402;4.920;2022-08-19T10:53:37;26.70;90.40
17370;DHT22;8802;52.402;4.920;2022-08-19T10:56:04;26.80;90.10
17370;DHT22;8802;52.402;4.920;2022-08-19T10:58:48;26.80;90.10
17370;DHT22;8802;52.402;4.920;2022-08-19T11:01:15;26.80;90.30
17370;DHT22;8802;52.402;4.920;2022-08-19T11:03:42;26.90;90.10
17370;DHT22;8802;52.402;4.920;2022-08-19T11:06:11;26.90;89.50
17370;DHT22;8802;52.402;4.920;2022-08-19T11:08:39;27.00;88.30
17370;DHT22;8802;52.402;4.920;2022-08-19T11:11:09;27.00;88.80
17370;DHT22;8802;52.402;4.920;2022-08-19T11:13:39;27.10;89.20
17370;DHT22;8802;52.402;4.920;2022-08-19T11:16:08;27.10;89.40
17370;DHT22;8802;52.402;4.920;2022-08-19T11:18:37;27.10;89.10
17370;DHT22;8802;52.402;4.920;2022-08-19T11:21:09;27.10;89.50
17370;DHT22;8802;52.402;4.920;2022-08-19T11:23:37;27.10;89.90
17370;DHT22;8802;52.402;4.920;2022-08-19T11:26:06;27.10;90.00
17370;DHT22;8802;52.402;4.920;2022-08-19T11:28:33;27.10;90.20
17370;DHT22;8802;52.402;4.920;2022-08-19T11:30:59;27.10;90.10
17370;DHT22;8802;52.402;4.920;2022-08-19T11:33:29;27.10;90.10
17370;DHT22;8802;52.402;4.920;2022-08-19T11:35:57;27.10;90.10
17370;DHT22;8802;52.402;4.920;2022-08-19T11:38:24;27.10;90.00
17370;DHT22;8802;52.402;4.920;2022-08-19T11:40:56;27.00;90.10
17370;DHT22;8802;52.402;4.920;2022-08-19T11:43:24;27.00;89.10
17370;DHT22;8802;52.402;4.920;2022-08-19T11:45:52;27.10;89.20
17370;DHT22;8802;52.402;4.920;2022-08-19T11:48:19;27.10;88.90
17370;DHT22;8802;52.402;4.920;2022-08-19T11:50:48;27.00;88.60
17370;DHT22;8802;52.402;4.920;2022-08-19T11:53:15;27.10;88.20
17370;DHT22;8802;52.402;4.920;2022-08-19T11:55:44;27.00;88.30
17370;DHT22;8802;52.402;4.920;2022-08-19T11:58:11;27.00;88.30
17370;DHT22;8802;52.402;4.920;2022-08-19T12:00:39;27.00;88.30
17370;DHT22;8802;52.402;4.920;2022-08-19T12:03:07;27.00;88.20
17370;DHT22;8802;52.402;4.920;2022-08-19T12:05:36;27.00;88.00
17370;DHT22;8802;52.402;4.920;2022-08-19T12:08:03;27.10;88.00
17370;DHT22;8802;52.402;4.920;2022-08-19T12:10:30;27.10;87.90
17370;DHT22;8802;52.402;4.920;2022-08-19T12:12:56;27.10;88.30
17370;DHT22;8802;52.402;4.920;2022-08-19T12:15:23;27.10;87.80
17370;DHT22;8802;52.402;4.920;2022-08-19T12:17:51;27.20;87.90
17370;DHT22;8802;52.402;4.920;2022-08-19T12:20:23;27.20;86.80
17370;DHT22;8802;52.402;4.920;2022-08-19T12:22:50;27.30;86.70
17370;DHT22;8802;52.402;4.920;2022-08-19T12:25:17;27.30;86.60
17370;DHT22;8802;52.402;4.920;2022-08-19T12:27:44;27.30;86.50
17370;DHT22;8802;52.402;4.920;2022-08-19T12:30:12;27.40;87.00
17370;DHT22;8802;52.402;4.920;2022-08-19T12:32:39;27.40;87.00
17370;DHT22;8802;52.402;4.920;2022-08-19T12:35:08;27.40;86.70
17370;DHT22;8802;52.402;4.920;2022-08-19T12:37:37;27.40;87.10
17370;DHT22;8802;52.402;4.920;2022-08-19T12:40:05;27.50;86.90
17370;DHT22;8802;52.402;4.920;2022-08-19T12:42:32;27.50;86.60
17370;DHT22;8802;52.402;4.920;2022-08-19T12:45:00;27.40;87.00
17370;DHT22;8802;52.402;4.920;2022-08-19T12:47:27;27.50;85.70
17370;DHT22;8802;52.402;4.920;2022-08-19T12:49:53;27.50;86.10
17370;DHT22;8802;52.402;4.920;2022-08-19T12:52:24;27.50;86.60
17370;DHT22;8802;52.402;4.920;2022-08-19T12:54:53;27.50;85.90
17370;DHT22;8802;52.402;4.920;2022-08-19T12:57:22;27.50;85.50
17370;DHT22;8802;52.402;4.920;2022-08-19T12:59:52;27.50;85.20
17370;DHT22;8802;52.402;4.920;2022-08-19T13:02:19;27.50;85.10
17370;DHT22;8802;52.402;4.920;2022-08-19T13:04:46;27.50;86.20
17370;DHT22;8802;52.402;4.920;2022-08-19T13:07:13;27.50;85.60
17370;DHT22;8802;52.402;4.920;2022-08-19T13:09:41;27.50;85.10
17370;DHT22;8802;52.402;4.920;2022-08-19T13:12:09;27.50;85.00
17370;DHT22;8802;52.402;4.920;2022-08-19T13:14:38;27.60;84.80
17370;DHT22;8802;52.402;4.920;2022-08-19T13:17:06;27.60;85.00
17370;DHT22;8802;52.402;4.920;2022-08-19T13:19:36;27.60;85.10
17370;DHT22;8802;52.402;4.920;2022-08-19T13:22:03;27.70;85.20
17370;DHT22;8802;52.402;4.920;2022-08-19T13:24:30;27.70;84.90
17370;DHT22;8802;52.402;4.920;2022-08-19T13:27:00;27.80;85.60
17370;DHT22;8802;52.402;4.920;2022-08-19T13:29:27;27.80;85.20
17370;DHT22;8802;52.402;4.920;2022-08-19T13:32:11;27.90;85.40
17370;DHT22;8802;52.402;4.920;2022-08-19T13:34:56;27.90;85.00
17370;DHT22;8802;52.402;4.920;2022-08-19T13:37:23;28.00;84.80
17370;DHT22;8802;52.402;4.920;2022-08-19T13:40:05;28.00;84.10
17370;DHT22;8802;52.402;4.920;2022-08-19T13:42:33;28.10;83.70
17370;DHT22;8802;52.402;4.920;2022-08-19T13:45:00;28.10;83.60
17370;DHT22;8802;52.402;4.920;2022-08-19T13:47:27;28.10;83.20
17370;DHT22;8802;52.402;4.920;2022-08-19T13:49:53;28.10;83.70
17370;DHT22;8802;52.402;4.920;2022-08-19T13:52:20;28.20;83.80
17370;DHT22;8802;52.402;4.920;2022-08-19T13:54:47;28.20;83.80
17370;DHT22;8802;52.402;4.920;2022-08-19T13:57:14;28.20;82.90
17370;DHT22;8802;52.402;4.920;2022-08-19T13:59:42;28.20;82.50
17370;DHT22;8802;52.402;4.920;2022-08-19T14:02:09;28.20;83.60
17370;DHT22;8802;52.402;4.920;2022-08-19T14:04:36;28.20;83.60
17370;DHT22;8802;52.402;4.920;2022-08-19T14:07:04;28.30;83.40
17370;DHT22;8802;52.402;4.920;2022-08-19T14:09:31;28.30;83.30
17370;DHT22;8802;52.402;4.920;2022-08-19T14:11:57;28.30;83.30
17370;DHT22;8802;52.402;4.920;2022-08-19T14:14:24;28.30;83.20
17370;DHT22;8802;52.402;4.920;2022-08-19T14:16:52;28.30;82.80
17370;DHT22;8802;52.402;4.920;2022-08-19T14:19:19;28.30;82.80
17370;DHT22;8802;52.402;4.920;2022-08-19T14:21:46;28.40;83.20
17370;DHT22;8802;52.402;4.920;2022-08-19T14:24:13;28.40;82.70
17370;DHT22;8802;52.402;4.920;2022-08-19T14:26:40;28.40;82.70
17370;DHT22;8802;52.402;4.920;2022-08-19T14:29:07;28.40;82.80
17370;DHT22;8802;52.402;4.920;2022-08-19T14:31:34;28.40;82.60
17370;DHT22;8802;52.402;4.920;2022-08-19T14:34:02;28.40;82.00
17370;DHT22;8802;52.402;4.920;2022-08-19T14:36:29;28.40;83.60
17370;DHT22;8802;52.402;4.920;2022-08-19T14:38:57;28.40;82.20
17370;DHT22;8802;52.402;4.920;2022-08-19T14:41:26;28.40;81.80
17370;DHT22;8802;52.402;4.920;2022-08-19T14:43:53;28.40;82.80
17370;DHT22;8802;52.402;4.920;2022-08-19T14:46:22;28.40;81.50
17370;DHT22;8802;52.402;4.920;2022-08-19T14:48:50;28.40;81.40
17370;DHT22;8802;52.402;4.920;2022-08-19T14:51:20;28.40;81.50
17370;DHT22;8802;52.402;4.920;2022-08-19T14:53:47;28.40;81.60
17370;DHT22;8802;52.402;4.920;2022-08-19T14:56:17;28.40;82.00
17370;DHT22;8802;52.402;4.920;2022-08-19T14:58:44;28.30;82.20
17370;DHT22;8802;52.402;4.920;2022-08-19T15:01:12;28.30;82.20
17370;DHT22;8802;52.402;4.920;2022-08-19T15:03:39;28.30;82.20
17370;DHT22;8802;52.402;4.920;2022-08-19T15:06:07;28.20;82.50
17370;DHT22;8802;52.402;4.920;2022-08-19T15:08:36;28.20;82.60
17370;DHT22;8802;52.402;4.920;2022-08-19T15:11:08;28.20;82.80
17370;DHT22;8802;52.402;4.920;2022-08-19T15:13:36;28.20;82.70
17370;DHT22;8802;52.402;4.920;2022-08-19T15:16:03;28.20;82.40
17370;DHT22;8802;52.402;4.920;2022-08-19T15:18:30;28.10;82.00
17370;DHT22;8802;52.402;4.920;2022-08-19T15:20:58;28.10;82.30
17370;DHT22;8802;52.402;4.920;2022-08-19T15:23:25;28.10;82.50
17370;DHT22;8802;52.402;4.920;2022-08-19T15:25:53;28.00;82.40
17370;DHT22;8802;52.402;4.920;2022-08-19T15:28:20;28.00;82.20
17370;DHT22;8802;52.402;4.920;2022-08-19T15:30:48;28.00;82.50
17370;DHT22;8802;52.402;4.920;2022-08-19T15:33:15;27.90;82.80
17370;DHT22;8802;52.402;4.920;2022-08-19T15:35:43;27.90;83.00
17370;DHT22;8802;52.402;4.920;2022-08-19T15:38:10;27.80;83.00
17370;DHT22;8802;52.402;4.920;2022-08-19T15:40:39;27.80;83.20
17370;DHT22;8802;52.402;4.920;2022-08-19T15:43:08;27.80;83.40
17370;DHT22;8802;52.402;4.920;2022-08-19T15:45:35;27.70;83.50
17370;DHT22;8802;52.402;4.920;2022-08-19T15:48:03;27.70;83.20
17370;DHT22;8802;52.402;4.920;2022-08-19T15:50:31;27.70;83.00
17370;DHT22;8802;52.402;4.920;2022-08-19T15:53:04;27.70;83.20